sensor_id;sensor_type;location;lat;lon;timestamp;temperature;humidity
429;DHT22;201;48.758;9.290;2023-11-22T00:01:16;7.20;17.50
429;DHT22;201;48.758;9.290;2023-11-22T00:03:41;7.10;17.60
429;DHT22;201;48.758;9.290;2023-11-22T00:06:07;7.10;17.80
429;DHT22;201;48.758;9.290;2023-11-22T00:08:32;7.10;17.90
429;DHT22;201;48.758;9.290;2023-11-22T00:10:58;7.10;18.10
429;DHT22;201;48.758;9.290;2023-11-22T00:13:24;7.00;18.00
429;DHT22;201;48.758;9.290;2023-11-22T00:15:49;7.00;18.00
429;DHT22;201;48.758;9.290;2023-11-22T00:18:16;7.00;18.20
429;DHT22;201;48.758;9.290;2023-11-22T00:20:41;7.00;18.20
429;DHT22;201;48.758;9.290;2023-11-22T00:23:07;6.80;17.40
429;DHT22;201;48.758;9.290;2023-11-22T00:25:33;6.50;15.80
429;DHT22;201;48.758;9.290;2023-11-22T00:27:59;6.20;16.20
429;DHT22;201;48.758;9.290;2023-11-22T00:30:24;6.00;16.10
429;DHT22;201;48.758;9.290;2023-11-22T00:32:50;5.80;15.90
429;DHT22;201;48.758;9.290;2023-11-22T00:35:16;5.70;15.90
429;DHT22;201;48.758;9.290;2023-11-22T00:37:42;5.50;15.80
429;DHT22;201;48.758;9.290;2023-11-22T00:40:08;5.40;15.60
429;DHT22;201;48.758;9.290;2023-11-22T00:42:37;5.30;16.00
429;DHT22;201;48.758;9.290;2023-11-22T00:45:05;5.30;16.90
429;DHT22;201;48.758;9.290;2023-11-22T00:47:32;5.20;16.30
429;DHT22;201;48.758;9.290;2023-11-22T00:49:58;5.20;16.40
429;DHT22;201;48.758;9.290;2023-11-22T00:52:24;5.10;16.20
429;DHT22;201;48.758;9.290;2023-11-22T00:54:49;5.10;16.30
429;DHT22;201;48.758;9.290;2023-11-22T00:57:15;5.10;16.50
429;DHT22;201;48.758;9.290;2023-11-22T00:59:40;5.00;16.50
429;DHT22;201;48.758;9.290;2023-11-22T01:02:06;5.00;16.60
429;DHT22;201;48.758;9.290;2023-11-22T01:04:34;5.00;16.80
429;DHT22;201;48.758;9.290;2023-11-22T01:07:01;5.00;16.70
429;DHT22;201;48.758;9.290;2023-11-22T01:09:26;4.90;16.60
429;DHT22;201;48.758;9.290;2023-11-22T01:11:54;4.90;16.70
429;DHT22;201;48.758;9.290;2023-11-22T01:14:19;4.80;16.60
429;DHT22;201;48.758;9.290;2023-11-22T01:16:45;4.80;16.70
429;DHT22;201;48.758;9.290;2023-11-22T01:19:10;4.80;16.30
429;DHT22;201;48.758;9.290;2023-11-22T01:21:36;4.70;16.10
429;DHT22;201;48.758;9.290;2023-11-22T01:24:02;4.70;15.50
429;DHT22;201;48.758;9.290;2023-11-22T01:26:28;4.60;15.10
429;DHT22;201;48.758;9.290;2023-11-22T01:28:53;4.60;15.10
429;DHT22;201;48.758;9.290;2023-11-22T01:31:19;4.60;15.10
429;DHT22;201;48.758;9.290;2023-11-22T01:33:48;4.50;15.00
429;DHT22;201;48.758;9.290;2023-11-22T01:36:13;4.50;15.00
429;DHT22;201;48.758;9.290;2023-11-22T01:38:40;4.50;15.00
429;DHT22;201;48.758;9.290;2023-11-22T01:41:06;4.50;15.10
429;DHT22;201;48.758;9.290;2023-11-22T01:43:32;4.50;15.00
429;DHT22;201;48.758;9.290;2023-11-22T01:45:58;4.50;15.00
429;DHT22;201;48.758;9.290;2023-11-22T01:48:23;4.50;15.10
429;DHT22;201;48.758;9.290;2023-11-22T01:50:50;4.50;15.40
429;DHT22;201;48.758;9.290;2023-11-22T01:53:15;4.50;15.40
429;DHT22;201;48.758;9.290;2023-11-22T01:55:43;4.50;15.10
429;DHT22;201;48.758;9.290;2023-11-22T01:58:10;4.40;15.00
429;DHT22;201;48.758;9.290;2023-11-22T02:00:42;4.40;15.00
429;DHT22;201;48.758;9.290;2023-11-22T02:03:07;4.50;15.10
429;DHT22;201;48.758;9.290;2023-11-22T02:05:33;4.40;15.00
429;DHT22;201;48.758;9.290;2023-11-22T02:07:58;4.40;15.00
429;DHT22;201;48.758;9.290;2023-11-22T02:10:24;4.50;15.00
429;DHT22;201;48.758;9.290;2023-11-22T02:12:50;4.50;15.10
429;DHT22;201;48.758;9.290;2023-11-22T02:15:15;4.40;15.00
429;DHT22;201;48.758;9.290;2023-11-22T02:17:41;4.40;14.20
429;DHT22;201;48.758;9.290;2023-11-22T02:20:07;4.20;13.80
429;DHT22;201;48.758;9.290;2023-11-22T02:22:45;4.20;13.60
429;DHT22;201;48.758;9.290;2023-11-22T02:25:11;4.10;13.30
429;DHT22;201;48.758;9.290;2023-11-22T02:27:37;4.00;12.60
429;DHT22;201;48.758;9.290;2023-11-22T02:30:03;4.00;12.20
429;DHT22;201;48.758;9.290;2023-11-22T02:32:31;3.90;11.50
429;DHT22;201;48.758;9.290;2023-11-22T02:34:57;3.80;11.40
429;DHT22;201;48.758;9.290;2023-11-22T02:37:22;3.80;12.00
429;DHT22;201;48.758;9.290;2023-11-22T02:42:31;3.80;10.80
429;DHT22;201;48.758;9.290;2023-11-22T02:44:56;3.70;10.90
429;DHT22;201;48.758;9.290;2023-11-22T02:47:22;3.80;11.20
429;DHT22;201;48.758;9.290;2023-11-22T02:49:48;3.80;11.10
429;DHT22;201;48.758;9.290;2023-11-22T02:52:14;3.80;10.40
429;DHT22;201;48.758;9.290;2023-11-22T02:54:43;3.70;10.00
429;DHT22;201;48.758;9.290;2023-11-22T02:57:09;3.70;10.30
429;DHT22;201;48.758;9.290;2023-11-22T02:59:34;3.70;10.60
429;DHT22;201;48.758;9.290;2023-11-22T03:02:00;3.70;10.30
429;DHT22;201;48.758;9.290;2023-11-22T03:04:27;3.70;10.30
429;DHT22;201;48.758;9.290;2023-11-22T03:06:53;3.60;10.20
429;DHT22;201;48.758;9.290;2023-11-22T03:09:19;3.60;10.20
429;DHT22;201;48.758;9.290;2023-11-22T03:11:44;3.60;9.90
429;DHT22;201;48.758;9.290;2023-11-22T03:14:10;3.60;9.00
429;DHT22;201;48.758;9.290;2023-11-22T03:16:39;3.50;8.80
429;DHT22;201;48.758;9.290;2023-11-22T03:19:04;3.50;8.70
429;DHT22;201;48.758;9.290;2023-11-22T03:21:30;3.40;8.00
429;DHT22;201;48.758;9.290;2023-11-22T03:23:55;3.50;8.20
429;DHT22;201;48.758;9.290;2023-11-22T03:26:21;3.40;7.60
429;DHT22;201;48.758;9.290;2023-11-22T03:28:46;3.30;5.80
429;DHT22;201;48.758;9.290;2023-11-22T03:31:13;3.30;6.70
429;DHT22;201;48.758;9.290;2023-11-22T03:33:39;3.30;7.20
429;DHT22;201;48.758;9.290;2023-11-22T03:36:05;3.30;7.00
429;DHT22;201;48.758;9.290;2023-11-22T03:38:31;3.30;7.20
429;DHT22;201;48.758;9.290;2023-11-22T03:40:56;3.20;6.10
429;DHT22;201;48.758;9.290;2023-11-22T03:43:22;3.10;6.40
429;DHT22;201;48.758;9.290;2023-11-22T03:45:47;3.10;6.90
429;DHT22;201;48.758;9.290;2023-11-22T03:48:13;3.00;6.30
429;DHT22;201;48.758;9.290;2023-11-22T03:50:38;2.90;5.40
429;DHT22;201;48.758;9.290;2023-11-22T03:53:04;2.90;5.40
429;DHT22;201;48.758;9.290;2023-11-22T03:55:29;2.90;5.50
429;DHT22;201;48.758;9.290;2023-11-22T03:57:55;2.90;5.40
429;DHT22;201;48.758;9.290;2023-11-22T04:00:21;2.90;5.40
429;DHT22;201;48.758;9.290;2023-11-22T04:02:46;2.90;5.40
429;DHT22;201;48.758;9.290;2023-11-22T04:05:12;3.00;5.50
429;DHT22;201;48.758;9.290;2023-11-22T04:07:37;2.90;5.50
429;DHT22;201;48.758;9.290;2023-11-22T04:10:05;2.90;4.40
429;DHT22;201;48.758;9.290;2023-11-22T04:12:31;2.80;4.10
429;DHT22;201;48.758;9.290;2023-11-22T04:14:57;2.90;4.60
429;DHT22;201;48.758;9.290;2023-11-22T04:17:23;2.80;4.40
429;DHT22;201;48.758;9.290;2023-11-22T04:19:48;2.80;3.90
429;DHT22;201;48.758;9.290;2023-11-22T04:22:14;2.80;3.10
429;DHT22;201;48.758;9.290;2023-11-22T04:24:39;2.80;2.60
429;DHT22;201;48.758;9.290;2023-11-22T04:27:05;2.70;2.50
429;DHT22;201;48.758;9.290;2023-11-22T04:29:30;2.70;2.60
429;DHT22;201;48.758;9.290;2023-11-22T04:31:56;2.70;2.40
429;DHT22;201;48.758;9.290;2023-11-22T04:34:21;2.70;3.00
429;DHT22;201;48.758;9.290;2023-11-22T04:36:47;2.70;3.20
429;DHT22;201;48.758;9.290;2023-11-22T04:39:13;2.70;2.90
429;DHT22;201;48.758;9.290;2023-11-22T04:41:38;2.70;2.50
429;DHT22;201;48.758;9.290;2023-11-22T04:44:04;2.80;2.50
429;DHT22;201;48.758;9.290;2023-11-22T04:46:30;2.70;2.60
429;DHT22;201;48.758;9.290;2023-11-22T04:48:56;2.70;1.90
429;DHT22;201;48.758;9.290;2023-11-22T04:51:22;2.70;2.40
429;DHT22;201;48.758;9.290;2023-11-22T04:53:49;2.70;1.80
429;DHT22;201;48.758;9.290;2023-11-22T04:56:15;2.70;1.70
429;DHT22;201;48.758;9.290;2023-11-22T04:58:42;2.60;1.90
429;DHT22;201;48.758;9.290;2023-11-22T05:01:07;2.60;2.30
429;DHT22;201;48.758;9.290;2023-11-22T05:03:35;2.50;2.40
429;DHT22;201;48.758;9.290;2023-11-22T05:06:03;2.50;2.40
429;DHT22;201;48.758;9.290;2023-11-22T05:08:28;2.50;2.80
429;DHT22;201;48.758;9.290;2023-11-22T05:10:54;2.40;2.30
429;DHT22;201;48.758;9.290;2023-11-22T05:13:19;2.50;2.40
429;DHT22;201;48.758;9.290;2023-11-22T05:15:45;2.40;2.60
429;DHT22;201;48.758;9.290;2023-11-22T05:18:10;2.40;2.60
429;DHT22;201;48.758;9.290;2023-11-22T05:20:36;2.40;2.70
429;DHT22;201;48.758;9.290;2023-11-22T05:23:01;2.30;2.70
429;DHT22;201;48.758;9.290;2023-11-22T05:25:27;2.30;2.50
429;DHT22;201;48.758;9.290;2023-11-22T05:27:52;2.30;2.80
429;DHT22;201;48.758;9.290;2023-11-22T05:30:18;2.20;3.10
429;DHT22;201;48.758;9.290;2023-11-22T05:32:43;2.20;3.20
429;DHT22;201;48.758;9.290;2023-11-22T05:35:09;2.20;3.20
429;DHT22;201;48.758;9.290;2023-11-22T05:37:36;2.20;3.10
429;DHT22;201;48.758;9.290;2023-11-22T05:40:02;2.20;2.50
429;DHT22;201;48.758;9.290;2023-11-22T05:42:28;2.30;3.10
429;DHT22;201;48.758;9.290;2023-11-22T05:44:54;2.30;2.90
429;DHT22;201;48.758;9.290;2023-11-22T05:47:19;2.30;3.00
429;DHT22;201;48.758;9.290;2023-11-22T05:49:45;2.40;3.30
429;DHT22;201;48.758;9.290;2023-11-22T05:52:10;2.50;3.00
429;DHT22;201;48.758;9.290;2023-11-22T05:54:36;2.50;2.30
429;DHT22;201;48.758;9.290;2023-11-22T05:57:02;2.60;2.20
429;DHT22;201;48.758;9.290;2023-11-22T05:59:27;2.70;1.40
429;DHT22;201;48.758;9.290;2023-11-22T06:01:53;2.70;1.00
429;DHT22;201;48.758;9.290;2023-11-22T06:04:18;2.70;1.00
429;DHT22;201;48.758;9.290;2023-11-22T06:06:44;2.90;1.00
429;DHT22;201;48.758;9.290;2023-11-22T06:09:09;2.80;1.00
429;DHT22;201;48.758;9.290;2023-11-22T06:11:39;2.80;1.00
429;DHT22;201;48.758;9.290;2023-11-22T06:14:04;2.80;1.00
429;DHT22;201;48.758;9.290;2023-11-22T06:16:30;2.80;1.00
429;DHT22;201;48.758;9.290;2023-11-22T06:18:55;2.70;1.00
429;DHT22;201;48.758;9.290;2023-11-22T06:21:21;2.70;1.00
429;DHT22;201;48.758;9.290;2023-11-22T06:23:49;2.80;1.00
429;DHT22;201;48.758;9.290;2023-11-22T06:26:15;2.80;1.00
429;DHT22;201;48.758;9.290;2023-11-22T06:28:40;2.80;1.00
429;DHT22;201;48.758;9.290;2023-11-22T06:31:06;2.80;1.00
429;DHT22;201;48.758;9.290;2023-11-22T06:33:31;2.80;1.00
429;DHT22;201;48.758;9.290;2023-11-22T06:35:57;2.80;1.00
429;DHT22;201;48.758;9.290;2023-11-22T06:38:22;2.80;1.70
429;DHT22;201;48.758;9.290;2023-11-22T06:40:48;2.80;1.50
429;DHT22;201;48.758;9.290;2023-11-22T06:43:13;2.80;1.40
429;DHT22;201;48.758;9.290;2023-11-22T06:45:39;2.90;1.10
429;DHT22;201;48.758;9.290;2023-11-22T06:48:05;2.80;1.00
429;DHT22;201;48.758;9.290;2023-11-22T06:50:30;2.90;1.00
429;DHT22;201;48.758;9.290;2023-11-22T06:52:56;2.90;1.00
429;DHT22;201;48.758;9.290;2023-11-22T06:55:21;2.90;1.10
429;DHT22;201;48.758;9.290;2023-11-22T06:57:47;3.00;1.20
429;DHT22;201;48.758;9.290;2023-11-22T07:00:13;3.00;1.10
429;DHT22;201;48.758;9.290;2023-11-22T07:02:39;3.00;1.30
429;DHT22;201;48.758;9.290;2023-11-22T07:05:05;3.00;1.40
429;DHT22;201;48.758;9.290;2023-11-22T07:07:34;3.00;1.50
429;DHT22;201;48.758;9.290;2023-11-22T07:10:00;3.10;2.00
429;DHT22;201;48.758;9.290;2023-11-22T07:12:26;3.10;2.40
429;DHT22;201;48.758;9.290;2023-11-22T07:14:52;3.10;2.40
429;DHT22;201;48.758;9.290;2023-11-22T07:17:18;3.00;2.70
429;DHT22;201;48.758;9.290;2023-11-22T07:19:44;3.00;2.10
429;DHT22;201;48.758;9.290;2023-11-22T07:22:14;3.10;8.10
429;DHT22;201;48.758;9.290;2023-11-22T07:24:45;3.30;5.10
429;DHT22;201;48.758;9.290;2023-11-22T07:27:14;3.10;1.50
429;DHT22;201;48.758;9.290;2023-11-22T07:29:40;2.90;1.10
429;DHT22;201;48.758;9.290;2023-11-22T07:32:06;2.90;2.00
429;DHT22;201;48.758;9.290;2023-11-22T07:34:34;2.80;1.70
429;DHT22;201;48.758;9.290;2023-11-22T07:37:00;2.80;1.80
429;DHT22;201;48.758;9.290;2023-11-22T07:39:25;2.80;1.60
429;DHT22;201;48.758;9.290;2023-11-22T07:41:54;2.70;1.40
429;DHT22;201;48.758;9.290;2023-11-22T07:44:23;2.60;1.00
429;DHT22;201;48.758;9.290;2023-11-22T07:46:49;2.60;1.10
429;DHT22;201;48.758;9.290;2023-11-22T07:49:17;2.60;1.20
429;DHT22;201;48.758;9.290;2023-11-22T07:51:44;2.50;1.00
429;DHT22;201;48.758;9.290;2023-11-22T07:54:10;2.50;1.00
429;DHT22;201;48.758;9.290;2023-11-22T07:56:41;2.50;1.00
429;DHT22;201;48.758;9.290;2023-11-22T07:59:09;2.60;1.40
429;DHT22;201;48.758;9.290;2023-11-22T08:01:36;2.50;1.20
429;DHT22;201;48.758;9.290;2023-11-22T08:04:02;2.50;1.10
429;DHT22;201;48.758;9.290;2023-11-22T08:06:28;2.50;1.20
429;DHT22;201;48.758;9.290;2023-11-22T08:08:53;2.50;1.00
429;DHT22;201;48.758;9.290;2023-11-22T08:11:19;2.40;1.00
429;DHT22;201;48.758;9.290;2023-11-22T08:13:45;2.40;1.70
429;DHT22;201;48.758;9.290;2023-11-22T08:16:13;2.50;1.70
429;DHT22;201;48.758;9.290;2023-11-22T08:18:39;2.40;1.00
429;DHT22;201;48.758;9.290;2023-11-22T08:21:06;2.30;1.10
429;DHT22;201;48.758;9.290;2023-11-22T08:23:31;2.40;1.60
429;DHT22;201;48.758;9.290;2023-11-22T08:25:59;2.40;1.00
429;DHT22;201;48.758;9.290;2023-11-22T08:28:25;2.30;1.10
429;DHT22;201;48.758;9.290;2023-11-22T08:30:51;2.30;1.00
429;DHT22;201;48.758;9.290;2023-11-22T08:33:17;2.40;1.40
429;DHT22;201;48.758;9.290;2023-11-22T08:35:42;2.40;1.60
429;DHT22;201;48.758;9.290;2023-11-22T08:38:08;2.40;1.70
429;DHT22;201;48.758;9.290;2023-11-22T08:40:35;2.50;1.60
429;DHT22;201;48.758;9.290;2023-11-22T08:43:03;2.50;1.10
429;DHT22;201;48.758;9.290;2023-11-22T08:45:29;2.40;1.00
429;DHT22;201;48.758;9.290;2023-11-22T08:47:57;2.40;1.00
429;DHT22;201;48.758;9.290;2023-11-22T08:50:22;2.40;1.00
429;DHT22;201;48.758;9.290;2023-11-22T08:52:49;2.50;1.00
429;DHT22;201;48.758;9.290;2023-11-22T08:55:18;2.40;1.00
429;DHT22;201;48.758;9.290;2023-11-22T08:57:47;2.50;1.00
429;DHT22;201;48.758;9.290;2023-11-22T09:00:13;2.50;1.00
429;DHT22;201;48.758;9.290;2023-11-22T09:02:40;2.40;1.00
429;DHT22;201;48.758;9.290;2023-11-22T09:05:06;2.50;1.00
429;DHT22;201;48.758;9.290;2023-11-22T09:07:34;2.50;1.00
429;DHT22;201;48.758;9.290;2023-11-22T09:10:04;2.50;1.00
429;DHT22;201;48.758;9.290;2023-11-22T09:12:39;2.50;1.00
429;DHT22;201;48.758;9.290;2023-11-22T09:15:07;2.50;1.00
429;DHT22;201;48.758;9.290;2023-11-22T09:17:37;2.50;1.00
429;DHT22;201;48.758;9.290;2023-11-22T09:20:09;2.60;1.00
429;DHT22;201;48.758;9.290;2023-11-22T09:22:41;2.60;1.00
429;DHT22;201;48.758;9.290;2023-11-22T09:25:10;2.60;1.00
429;DHT22;201;48.758;9.290;2023-11-22T09:27:36;2.70;1.00
429;DHT22;201;48.758;9.290;2023-11-22T09:30:03;2.60;1.00
429;DHT22;201;48.758;9.290;2023-11-22T09:32:29;2.60;1.00
429;DHT22;201;48.758;9.290;2023-11-22T09:34:55;2.70;1.00
429;DHT22;201;48.758;9.290;2023-11-22T09:37:23;2.80;1.00
429;DHT22;201;48.758;9.290;2023-11-22T09:39:49;2.80;1.00
429;DHT22;201;48.758;9.290;2023-11-22T09:42:15;2.90;1.00
429;DHT22;201;48.758;9.290;2023-11-22T09:44:41;2.90;1.00
429;DHT22;201;48.758;9.290;2023-11-22T09:47:06;2.90;1.00
429;DHT22;201;48.758;9.290;2023-11-22T09:49:33;3.00;1.00
429;DHT22;201;48.758;9.290;2023-11-22T09:52:01;3.10;1.00
429;DHT22;201;48.758;9.290;2023-11-22T09:54:30;3.10;1.00
429;DHT22;201;48.758;9.290;2023-11-22T09:56:59;3.20;1.00
429;DHT22;201;48.758;9.290;2023-11-22T09:59:28;3.30;1.00
429;DHT22;201;48.758;9.290;2023-11-22T10:01:54;3.20;1.00
429;DHT22;201;48.758;9.290;2023-11-22T10:04:20;3.20;1.00
429;DHT22;201;48.758;9.290;2023-11-22T10:06:45;3.20;1.00
429;DHT22;201;48.758;9.290;2023-11-22T10:09:12;3.10;1.00
429;DHT22;201;48.758;9.290;2023-11-22T10:11:39;3.20;1.00
429;DHT22;201;48.758;9.290;2023-11-22T10:14:16;3.20;1.00
429;DHT22;201;48.758;9.290;2023-11-22T10:17:00;3.20;1.00
429;DHT22;201;48.758;9.290;2023-11-22T10:19:27;3.20;1.00
429;DHT22;201;48.758;9.290;2023-11-22T10:22:04;3.10;1.00
429;DHT22;201;48.758;9.290;2023-11-22T10:24:33;3.30;1.00
429;DHT22;201;48.758;9.290;2023-11-22T10:27:00;3.40;1.00
429;DHT22;201;48.758;9.290;2023-11-22T10:29:26;3.40;1.00
429;DHT22;201;48.758;9.290;2023-11-22T10:31:52;3.50;1.00
429;DHT22;201;48.758;9.290;2023-11-22T10:34:20;3.60;1.00
429;DHT22;201;48.758;9.290;2023-11-22T10:36:46;3.80;1.00
429;DHT22;201;48.758;9.290;2023-11-22T10:39:12;3.90;1.00
429;DHT22;201;48.758;9.290;2023-11-22T10:41:42;3.90;1.00
429;DHT22;201;48.758;9.290;2023-11-22T10:44:08;3.70;1.00
429;DHT22;201;48.758;9.290;2023-11-22T10:46:34;3.60;1.00
429;DHT22;201;48.758;9.290;2023-11-22T10:49:00;3.60;1.00
429;DHT22;201;48.758;9.290;2023-11-22T10:51:33;3.60;1.00
429;DHT22;201;48.758;9.290;2023-11-22T10:54:00;3.50;1.00
429;DHT22;201;48.758;9.290;2023-11-22T10:56:38;3.50;1.00
429;DHT22;201;48.758;9.290;2023-11-22T10:59:10;3.60;1.00
429;DHT22;201;48.758;9.290;2023-11-22T11:01:38;3.60;1.00
429;DHT22;201;48.758;9.290;2023-11-22T11:04:24;3.70;1.00
429;DHT22;201;48.758;9.290;2023-11-22T11:06:54;3.60;1.00
429;DHT22;201;48.758;9.290;2023-11-22T11:09:23;3.60;1.00
429;DHT22;201;48.758;9.290;2023-11-22T11:11:58;3.60;1.00
429;DHT22;201;48.758;9.290;2023-11-22T11:14:24;3.50;1.00
429;DHT22;201;48.758;9.290;2023-11-22T11:16:51;3.60;1.00
429;DHT22;201;48.758;9.290;2023-11-22T11:19:20;3.50;1.00
429;DHT22;201;48.758;9.290;2023-11-22T11:21:49;3.50;1.00
429;DHT22;201;48.758;9.290;2023-11-22T11:24:15;3.50;1.00
429;DHT22;201;48.758;9.290;2023-11-22T11:26:49;3.50;1.00
429;DHT22;201;48.758;9.290;2023-11-22T11:29:31;3.70;1.00
429;DHT22;201;48.758;9.290;2023-11-22T11:31:57;3.70;1.00
429;DHT22;201;48.758;9.290;2023-11-22T11:34:23;3.80;1.00
429;DHT22;201;48.758;9.290;2023-11-22T11:36:52;3.90;1.00
429;DHT22;201;48.758;9.290;2023-11-22T11:39:30;4.20;1.00
429;DHT22;201;48.758;9.290;2023-11-22T11:42:09;4.30;1.00
429;DHT22;201;48.758;9.290;2023-11-22T11:44:35;4.20;1.00
429;DHT22;201;48.758;9.290;2023-11-22T11:47:09;4.20;1.00
429;DHT22;201;48.758;9.290;2023-11-22T11:49:37;4.00;1.00
429;DHT22;201;48.758;9.290;2023-11-22T11:52:04;4.00;1.00
429;DHT22;201;48.758;9.290;2023-11-22T11:54:30;3.90;1.00
429;DHT22;201;48.758;9.290;2023-11-22T11:56:59;4.00;1.00
429;DHT22;201;48.758;9.290;2023-11-22T11:59:25;3.90;1.00
429;DHT22;201;48.758;9.290;2023-11-22T12:01:54;3.70;1.00
429;DHT22;201;48.758;9.290;2023-11-22T12:04:23;3.70;1.00
429;DHT22;201;48.758;9.290;2023-11-22T12:06:49;3.50;1.00
429;DHT22;201;48.758;9.290;2023-11-22T12:09:22;3.40;1.00
429;DHT22;201;48.758;9.290;2023-11-22T12:11:49;3.40;1.00
429;DHT22;201;48.758;9.290;2023-11-22T12:14:15;3.40;1.00
429;DHT22;201;48.758;9.290;2023-11-22T12:16:40;3.40;1.00
429;DHT22;201;48.758;9.290;2023-11-22T12:19:09;3.50;1.00
429;DHT22;201;48.758;9.290;2023-11-22T12:21:36;3.40;1.00
429;DHT22;201;48.758;9.290;2023-11-22T12:24:02;3.40;1.00
429;DHT22;201;48.758;9.290;2023-11-22T12:26:31;3.30;1.00
429;DHT22;201;48.758;9.290;2023-11-22T12:28:59;3.30;1.00
429;DHT22;201;48.758;9.290;2023-11-22T12:31:25;3.30;1.00
429;DHT22;201;48.758;9.290;2023-11-22T12:33:54;3.30;1.00
429;DHT22;201;48.758;9.290;2023-11-22T12:36:22;3.20;1.00
429;DHT22;201;48.758;9.290;2023-11-22T12:38:47;3.20;1.00
429;DHT22;201;48.758;9.290;2023-11-22T12:41:14;3.20;1.00
429;DHT22;201;48.758;9.290;2023-11-22T12:43:40;3.10;1.00
429;DHT22;201;48.758;9.290;2023-11-22T12:46:07;3.10;1.00
429;DHT22;201;48.758;9.290;2023-11-22T12:48:32;2.90;1.00
429;DHT22;201;48.758;9.290;2023-11-22T12:50:58;2.90;1.00
429;DHT22;201;48.758;9.290;2023-11-22T12:53:24;2.80;1.00
429;DHT22;201;48.758;9.290;2023-11-22T12:55:53;2.70;1.00
429;DHT22;201;48.758;9.290;2023-11-22T12:58:20;2.70;1.00
429;DHT22;201;48.758;9.290;2023-11-22T13:00:48;2.80;1.00
429;DHT22;201;48.758;9.290;2023-11-22T13:03:14;2.70;1.00
429;DHT22;201;48.758;9.290;2023-11-22T13:05:42;2.70;1.00
429;DHT22;201;48.758;9.290;2023-11-22T13:08:08;2.70;1.00
429;DHT22;201;48.758;9.290;2023-11-22T13:10:36;2.70;1.00
429;DHT22;201;48.758;9.290;2023-11-22T13:13:02;2.60;1.00
429;DHT22;201;48.758;9.290;2023-11-22T13:15:28;2.60;1.00
429;DHT22;201;48.758;9.290;2023-11-22T13:17:53;2.60;1.00
429;DHT22;201;48.758;9.290;2023-11-22T13:20:27;2.70;1.00
429;DHT22;201;48.758;9.290;2023-11-22T13:22:54;2.80;1.00
429;DHT22;201;48.758;9.290;2023-11-22T13:25:20;2.80;1.00
429;DHT22;201;48.758;9.290;2023-11-22T13:27:46;2.80;1.00
429;DHT22;201;48.758;9.290;2023-11-22T13:30:16;2.80;1.00
429;DHT22;201;48.758;9.290;2023-11-22T13:32:45;2.80;1.00
429;DHT22;201;48.758;9.290;2023-11-22T13:35:11;2.80;1.00
429;DHT22;201;48.758;9.290;2023-11-22T13:37:47;2.80;1.00
429;DHT22;201;48.758;9.290;2023-11-22T13:40:18;2.80;1.00
429;DHT22;201;48.758;9.290;2023-11-22T13:42:52;2.80;1.00
429;DHT22;201;48.758;9.290;2023-11-22T13:45:19;2.80;1.00
429;DHT22;201;48.758;9.290;2023-11-22T13:47:52;2.80;1.00
429;DHT22;201;48.758;9.290;2023-11-22T13:50:20;2.80;1.00
429;DHT22;201;48.758;9.290;2023-11-22T13:52:48;2.90;1.00
429;DHT22;201;48.758;9.290;2023-11-22T13:55:14;3.00;1.00
429;DHT22;201;48.758;9.290;2023-11-22T13:57:41;3.00;1.00
429;DHT22;201;48.758;9.290;2023-11-22T14:00:08;3.10;1.00
429;DHT22;201;48.758;9.290;2023-11-22T14:02:49;3.20;1.00
429;DHT22;201;48.758;9.290;2023-11-22T14:05:14;3.20;1.00
429;DHT22;201;48.758;9.290;2023-11-22T14:07:41;3.20;1.00
429;DHT22;201;48.758;9.290;2023-11-22T14:10:07;3.30;1.00
429;DHT22;201;48.758;9.290;2023-11-22T14:12:33;3.40;1.00
429;DHT22;201;48.758;9.290;2023-11-22T14:14:59;3.50;1.00
429;DHT22;201;48.758;9.290;2023-11-22T14:17:25;3.50;1.00
429;DHT22;201;48.758;9.290;2023-11-22T14:19:54;3.40;1.00
429;DHT22;201;48.758;9.290;2023-11-22T14:22:23;3.50;1.00
429;DHT22;201;48.758;9.290;2023-11-22T14:24:50;3.50;1.00
429;DHT22;201;48.758;9.290;2023-11-22T14:27:16;3.60;1.00
429;DHT22;201;48.758;9.290;2023-11-22T14:29:42;3.70;1.00
429;DHT22;201;48.758;9.290;2023-11-22T14:32:09;3.60;1.00
429;DHT22;201;48.758;9.290;2023-11-22T14:34:34;3.40;1.00
429;DHT22;201;48.758;9.290;2023-11-22T14:37:00;3.30;1.00
429;DHT22;201;48.758;9.290;2023-11-22T14:39:26;3.20;1.00
429;DHT22;201;48.758;9.290;2023-11-22T14:41:54;3.10;1.00
429;DHT22;201;48.758;9.290;2023-11-22T14:44:21;3.10;1.00
429;DHT22;201;48.758;9.290;2023-11-22T14:46:46;3.00;1.00
429;DHT22;201;48.758;9.290;2023-11-22T14:49:14;3.10;1.00
429;DHT22;201;48.758;9.290;2023-11-22T14:51:40;3.10;1.00
429;DHT22;201;48.758;9.290;2023-11-22T14:54:05;3.20;1.00
429;DHT22;201;48.758;9.290;2023-11-22T14:56:32;3.30;1.00
429;DHT22;201;48.758;9.290;2023-11-22T14:58:58;3.40;1.00
429;DHT22;201;48.758;9.290;2023-11-22T15:01:24;3.30;1.00
429;DHT22;201;48.758;9.290;2023-11-22T15:03:51;3.40;1.00
429;DHT22;201;48.758;9.290;2023-11-22T15:06:20;3.40;1.00
429;DHT22;201;48.758;9.290;2023-11-22T15:08:46;3.30;1.00
429;DHT22;201;48.758;9.290;2023-11-22T15:11:12;3.30;1.00
429;DHT22;201;48.758;9.290;2023-11-22T15:13:40;3.20;1.00
429;DHT22;201;48.758;9.290;2023-11-22T15:16:05;3.10;1.00
429;DHT22;201;48.758;9.290;2023-11-22T15:18:31;3.00;1.00
429;DHT22;201;48.758;9.290;2023-11-22T15:20:56;2.90;1.00
429;DHT22;201;48.758;9.290;2023-11-22T15:23:23;2.90;1.00
429;DHT22;201;48.758;9.290;2023-11-22T15:25:48;2.90;1.00
429;DHT22;201;48.758;9.290;2023-11-22T15:28:14;3.00;1.00
429;DHT22;201;48.758;9.290;2023-11-22T15:30:48;2.90;1.00
429;DHT22;201;48.758;9.290;2023-11-22T15:33:15;2.90;1.00
429;DHT22;201;48.758;9.290;2023-11-22T15:35:41;3.00;1.00
429;DHT22;201;48.758;9.290;2023-11-22T15:38:06;3.10;1.00
429;DHT22;201;48.758;9.290;2023-11-22T15:40:32;3.10;1.00
429;DHT22;201;48.758;9.290;2023-11-22T15:42:57;3.10;1.00
429;DHT22;201;48.758;9.290;2023-11-22T15:45:24;3.10;1.00
429;DHT22;201;48.758;9.290;2023-11-22T15:47:49;3.00;1.00
429;DHT22;201;48.758;9.290;2023-11-22T15:50:15;2.90;1.00
429;DHT22;201;48.758;9.290;2023-11-22T15:52:42;2.80;1.00
429;DHT22;201;48.758;9.290;2023-11-22T15:55:08;2.80;1.00
429;DHT22;201;48.758;9.290;2023-11-22T15:57:34;2.70;1.00
429;DHT22;201;48.758;9.290;2023-11-22T16:00:00;2.60;1.00
429;DHT22;201;48.758;9.290;2023-11-22T16:02:25;2.50;1.00
429;DHT22;201;48.758;9.290;2023-11-22T16:04:52;2.60;1.00
429;DHT22;201;48.758;9.290;2023-11-22T16:07:18;2.60;1.00
429;DHT22;201;48.758;9.290;2023-11-22T16:09:46;2.60;1.00
429;DHT22;201;48.758;9.290;2023-11-22T16:12:12;2.60;1.00
429;DHT22;201;48.758;9.290;2023-11-22T16:14:44;2.50;1.00
429;DHT22;201;48.758;9.290;2023-11-22T16:17:10;2.50;1.00
429;DHT22;201;48.758;9.290;2023-11-22T16:19:36;2.50;1.00
429;DHT22;201;48.758;9.290;2023-11-22T16:22:02;2.40;1.00
429;DHT22;201;48.758;9.290;2023-11-22T16:24:28;2.50;1.00
429;DHT22;201;48.758;9.290;2023-11-22T16:26:55;2.50;1.00
429;DHT22;201;48.758;9.290;2023-11-22T16:29:21;2.50;1.00
429;DHT22;201;48.758;9.290;2023-11-22T16:31:46;2.50;1.00
429;DHT22;201;48.758;9.290;2023-11-22T16:34:12;2.50;1.00
429;DHT22;201;48.758;9.290;2023-11-22T16:36:38;2.50;1.00
429;DHT22;201;48.758;9.290;2023-11-22T16:39:04;2.50;1.00
429;DHT22;201;48.758;9.290;2023-11-22T16:41:32;2.50;1.00
429;DHT22;201;48.758;9.290;2023-11-22T16:43:58;2.50;1.00
429;DHT22;201;48.758;9.290;2023-11-22T16:46:24;2.50;1.00
429;DHT22;201;48.758;9.290;2023-11-22T16:48:51;2.40;1.00
429;DHT22;201;48.758;9.290;2023-11-22T16:51:20;2.40;1.00
429;DHT22;201;48.758;9.290;2023-11-22T16:53:45;2.40;1.00
429;DHT22;201;48.758;9.290;2023-11-22T16:56:11;2.40;1.00
429;DHT22;201;48.758;9.290;2023-11-22T16:58:36;2.50;1.00
429;DHT22;201;48.758;9.290;2023-11-22T17:01:04;2.50;1.00
429;DHT22;201;48.758;9.290;2023-11-22T17:03:29;2.50;1.00
429;DHT22;201;48.758;9.290;2023-11-22T17:05:55;2.50;1.00